Time;durP1;ratioP1;P1;durP2;ratioP2;P2;SDS_P1;SDS_P2;PMS_P1;PMS_P2;Temp;Humidity;BMP_temperature;BMP_pressure;BME280_temperature;BME280_humidity;BME280_pressure;Samples;Min_cycle;Max_cycle;Signal;HPM_P1;HPM_P2
2023/10/14 00:01:34;;;;;;;7.67;3.00;;;;;;;22.15;39.89;97411.28;5070506;28;20216;-74
2023/10/14 00:04:04;;;;;;;5.13;2.77;;;;;;;22.05;41.06;97399.91;5073289;28;20204;-74
2023/10/14 00:06:33;;;;;;;3.13;2.60;;;;;;;22.05;40.84;97397.19;5073119;28;20599;-74
2023/10/14 00:09:01;;;;;;;4.97;2.47;;;;;;;22.04;40.94;97398.31;5073324;28;20224;-74
2023/10/14 00:11:35;;;;;;;5.40;3.10;;;;;;;22.03;41.62;97400.22;5073311;28;20231;-74
2023/10/14 00:14:03;;;;;;;4.63;2.77;;;;;;;21.96;42.72;97396.34;5073377;28;20192;-74
2023/10/14 00:16:35;;;;;;;3.60;2.70;;;;;;;21.99;42.98;97403.84;5073298;28;20205;-74
2023/10/14 00:19:04;;;;;;;6.47;2.83;;;;;;;22.03;43.54;97397.50;5073247;28;20235;-74
2023/10/14 00:21:30;;;;;;;3.50;2.97;;;;;;;21.96;43.45;97396.34;5073091;28;20655;-74
2023/10/14 00:24:02;;;;;;;5.37;3.23;;;;;;;21.93;43.79;97402.38;5073244;28;20579;-74
2023/10/14 00:26:29;;;;;;;4.90;2.90;;;;;;;21.82;44.15;97396.41;5073190;28;20212;-74
2023/10/14 00:29:01;;;;;;;4.30;2.80;;;;;;;21.87;44.00;97390.06;5073099;28;20223;-74
2023/10/14 00:31:28;;;;;;;3.30;2.80;;;;;;;21.86;44.81;97393.88;5073288;28;20197;-74
2023/10/14 00:33:54;;;;;;;6.63;3.40;;;;;;;21.94;48.31;97393.16;5073143;28;20254;-74
2023/10/14 00:36:22;;;;;;;6.27;3.57;;;;;;;21.98;49.39;97388.72;5073152;28;20207;-74
2023/10/14 00:38:55;;;;;;;6.30;3.70;;;;;;;22.06;50.16;97390.72;5072981;28;20231;-74
2023/10/14 00:41:27;;;;;;;5.57;3.60;;;;;;;21.98;51.29;97369.78;5073191;28;20189;-74
2023/10/14 00:43:57;;;;;;;5.53;3.47;;;;;;;21.99;52.00;97374.91;5072784;28;20549;-74
2023/10/14 00:46:31;;;;;;;4.30;3.40;;;;;;;21.89;52.81;97364.28;5072724;28;20753;-74
2023/10/14 00:49:00;;;;;;;6.77;4.20;;;;;;;21.84;53.80;97367.13;5073062;28;20224;-74
2023/10/14 00:51:42;;;;;;;7.20;4.03;;;;;;;21.90;54.78;97354.28;5073036;28;20204;-74
2023/10/14 00:54:25;;;;;;;5.17;3.87;;;;;;;21.86;54.86;97348.69;5073000;28;20200;-74
2023/10/14 00:56:53;;;;;;;6.00;3.30;;;;;;;22.02;55.19;97359.94;5073235;28;20193;-74
2023/10/14 00:59:19;;;;;;;7.00;3.70;;;;;;;22.08;55.38;97353.28;5072959;28;20690;-74
2023/10/14 01:01:55;;;;;;;6.80;3.80;;;;;;;22.14;56.36;97365.56;5072819;28;20555;-74
2023/10/14 01:04:31;;;;;;;4.93;3.67;;;;;;;22.05;56.78;97362.81;5073384;28;20199;-74
2023/10/14 01:07:02;;;;;;;6.10;3.80;;;;;;;21.98;57.41;97367.84;5074600;28;20193;-74
2023/10/14 01:09:41;;;;;;;5.83;3.80;;;;;;;21.84;58.35;97360.94;5076561;28;20639;-74
2023/10/14 01:12:16;;;;;;;5.83;3.80;;;;;;;21.74;59.61;97358.44;5077076;28;20196;-74
2023/10/14 01:14:47;;;;;;;4.47;3.90;;;;;;;21.73;60.66;97354.97;5076418;28;20196;-74
2023/10/14 01:17:24;;;;;;;4.60;3.93;;;;;;;21.62;63.34;97358.19;5076431;28;20282;-74
2023/10/14 01:19:51;;;;;;;7.40;4.47;;;;;;;21.72;64.42;97353.38;5075922;28;20221;-74
2023/10/14 01:22:19;;;;;;;7.17;3.93;;;;;;;21.58;66.62;97357.19;5076186;28;20205;-74
2023/10/14 01:24:45;;;;;;;4.60;4.20;;;;;;;21.34;69.58;97352.03;5076226;28;20211;-74
2023/10/14 01:27:13;;;;;;;6.97;4.23;;;;;;;21.25;71.33;97343.03;5075790;28;20229;-74
2023/10/14 01:29:40;;;;;;;6.87;5.07;;;;;;;21.16;72.79;97363.78;5076084;28;20204;-74
2023/10/14 01:32:43;;;;;;;5.43;4.67;;;;;;;21.18;73.68;97356.19;5076065;28;20227;-74
2023/10/14 01:35:24;;;;;;;6.37;4.53;;;;;;;21.10;75.11;97364.19;5075643;28;20525;-74
2023/10/14 01:38:01;;;;;;;10.37;5.03;;;;;;;21.06;76.04;97369.41;5075605;28;20221;-74
2023/10/14 01:40:36;;;;;;;7.60;4.60;;;;;;;21.07;75.90;97365.59;5075755;28;20213;-74
2023/10/14 01:43:06;;;;;;;7.90;4.93;;;;;;;21.05;76.24;97359.72;5076355;28;20331;-74
2023/10/14 01:45:39;;;;;;;5.73;4.70;;;;;;;20.95;76.93;97367.22;5075521;28;20764;-73
2023/10/14 01:48:14;;;;;;;7.40;4.97;;;;;;;20.99;77.05;97355.53;5075979;28;20232;-74
2023/10/14 01:50:46;;;;;;;5.40;4.47;;;;;;;20.95;78.00;97365.34;5075365;28;20522;-74
2023/10/14 01:53:21;;;;;;;9.13;5.20;;;;;;;20.85;79.59;97370.09;5075295;28;20189;-74
2023/10/14 01:55:48;;;;;;;7.07;4.97;;;;;;;20.87;80.18;97374.09;5075414;28;20634;-74
2023/10/14 01:58:22;;;;;;;6.30;4.53;;;;;;;20.76;81.18;97371.91;5075602;28;20278;-74
2023/10/14 02:00:53;;;;;;;6.60;4.60;;;;;;;20.81;81.04;97383.41;5074993;28;20228;-74
2023/10/14 02:03:23;;;;;;;5.50;5.00;;;;;;;20.59;82.78;97377.91;5075415;28;20208;-74
2023/10/14 02:05:52;;;;;;;8.17;5.17;;;;;;;20.64;83.19;97363.47;5075313;28;20200;-74
2023/10/14 02:08:21;;;;;;;5.23;4.70;;;;;;;20.58;83.84;97354.66;5075310;28;20630;-74
2023/10/14 02:10:50;;;;;;;8.27;4.90;;;;;;;20.58;84.10;97351.19;5075182;28;20211;-74
2023/10/14 02:13:18;;;;;;;4.90;4.37;;;;;;;20.57;84.33;97344.97;5075256;28;20244;-74
2023/10/14 02:15:46;;;;;;;5.13;4.67;;;;;;;20.49;84.97;97343.00;5075207;28;20215;-74
2023/10/14 02:18:16;;;;;;;6.00;5.00;;;;;;;20.52;85.14;97345.06;5074029;28;20707;-74
2023/10/14 02:20:56;;;;;;;5.07;4.57;;;;;;;20.49;85.20;97345.69;5075011;28;20224;-74
2023/10/14 02:23:30;;;;;;;7.90;5.10;;;;;;;20.50;85.23;97336.47;5075018;28;20192;-74
2023/10/14 02:25:58;;;;;;;7.80;5.10;;;;;;;20.56;85.22;97335.28;5074948;28;20193;-74
2023/10/14 02:28:27;;;;;;;7.03;4.90;;;;;;;20.47;85.60;97334.38;5074792;28;20225;-74
2023/10/14 02:30:59;;;;;;;7.43;5.10;;;;;;;20.50;85.77;97332.97;5074868;28;20246;-74
2023/10/14 02:33:25;;;;;;;5.87;4.63;;;;;;;20.58;85.38;97332.28;5074743;28;20188;-74
2023/10/14 02:35:55;;;;;;;7.87;5.13;;;;;;;20.59;85.35;97320.38;5074713;28;20201;-74
2023/10/14 02:38:24;;;;;;;6.20;4.90;;;;;;;20.56;85.59;97319.06;5074648;28;20220;-74
2023/10/14 02:40:50;;;;;;;6.57;4.60;;;;;;;20.67;84.90;97328.56;5074624;28;20307;-74
2023/10/14 02:43:17;;;;;;;6.93;5.30;;;;;;;20.62;85.18;97317.09;5074725;28;20227;-74
2023/10/14 02:45:45;;;;;;;6.17;4.77;;;;;;;20.60;85.36;97305.75;5074436;28;20204;-74
2023/10/14 02:48:11;;;;;;;6.97;5.00;;;;;;;20.67;84.85;97300.78;5074495;28;20225;-74
2023/10/14 02:50:38;;;;;;;5.53;4.43;;;;;;;20.61;85.18;97308.16;5074427;28;20211;-74
2023/10/14 02:53:07;;;;;;;6.57;5.07;;;;;;;20.50;85.80;97295.97;5074241;28;20204;-74
2023/10/14 02:58:15;;;;;;;7.17;4.70;;;;;;;20.56;85.51;97296.66;5073911;28;20311;-74
2023/10/14 03:00:41;;;;;;;7.17;5.00;;;;;;;20.53;85.74;97291.88;5073697;28;20224;-74
2023/10/14 03:03:12;;;;;;;7.53;5.60;;;;;;;20.52;85.66;97311.88;5073968;28;20210;-74
2023/10/14 03:05:51;;;;;;;6.53;5.00;;;;;;;20.50;85.84;97308.66;5074708;28;20201;-74
2023/10/14 03:08:18;;;;;;;10.47;5.17;;;;;;;20.56;85.36;97304.75;5073893;28;20224;-74
2023/10/14 03:10:46;;;;;;;6.47;4.90;;;;;;;20.61;85.16;97301.97;5073865;28;20204;-74
2023/10/14 03:13:13;;;;;;;9.23;5.33;;;;;;;20.57;85.40;97301.75;5073945;28;20208;-74
2023/10/14 03:15:42;;;;;;;6.50;5.27;;;;;;;20.67;84.60;97296.16;5073711;28;20231;-74
2023/10/14 03:18:13;;;;;;;7.00;4.97;;;;;;;20.61;84.91;97297.38;5073617;28;20315;-74
2023/10/14 03:20:43;;;;;;;6.53;4.70;;;;;;;20.73;84.23;97296.84;5073747;28;20235;-74
2023/10/14 03:23:17;;;;;;;5.60;4.57;;;;;;;20.74;84.15;97288.44;5073808;28;20299;-74
2023/10/14 03:25:45;;;;;;;10.10;5.10;;;;;;;20.79;83.73;97282.94;5073556;28;20643;-74
2023/10/14 03:28:14;;;;;;;6.63;4.77;;;;;;;20.70;84.11;97282.06;5073630;28;20718;-74
2023/10/14 03:30:45;;;;;;;5.57;5.07;;;;;;;20.78;83.69;97285.94;5073429;28;20655;-74
2023/10/14 03:33:19;;;;;;;7.63;5.10;;;;;;;20.73;83.93;97288.75;5074618;28;20547;-74
2023/10/14 03:35:56;;;;;;;5.87;4.40;;;;;;;20.80;83.38;97299.97;5073671;28;20189;-74
2023/10/14 03:38:33;;;;;;;6.90;4.83;;;;;;;20.77;83.34;97300.56;5073477;28;20232;-74
2023/10/14 03:41:04;;;;;;;6.10;5.50;;;;;;;20.82;82.93;97303.16;5073365;28;20570;-74
2023/10/14 03:43:43;;;;;;;6.73;4.70;;;;;;;20.85;83.18;97283.66;5073107;28;20199;-74
2023/10/14 03:46:13;;;;;;;8.40;5.57;;;;;;;20.86;83.07;97280.66;5074125;28;20265;-74
2023/10/14 03:48:47;;;;;;;8.13;4.70;;;;;;;20.83;83.00;97292.03;5073338;28;20604;-73
2023/10/14 03:51:24;;;;;;;11.50;5.30;;;;;;;20.80;83.66;97286.47;5073405;28;20258;-74
2023/10/14 03:53:54;;;;;;;7.10;4.83;;;;;;;20.74;84.28;97277.66;5073991;28;20204;-74
2023/10/14 03:56:25;;;;;;;6.50;5.00;;;;;;;20.79;83.49;97269.44;5073567;28;20193;-74
2023/10/14 03:58:59;;;;;;;6.90;5.10;;;;;;;20.82;83.57;97252.63;5073420;28;20267;-74
2023/10/14 04:01:30;;;;;;;6.30;4.80;;;;;;;20.77;83.83;97254.63;5073047;28;20235;-74
2023/10/14 04:03:57;;;;;;;8.23;4.63;;;;;;;20.77;83.93;97273.53;5073187;28;20636;-74
2023/10/14 04:06:23;;;;;;;6.20;5.00;;;;;;;20.85;83.09;97273.63;5073314;28;20270;-74
2023/10/14 04:08:50;;;;;;;7.30;4.73;;;;;;;20.76;83.71;97270.03;5073079;28;20630;-74
2023/10/14 04:11:25;;;;;;;6.50;5.47;;;;;;;20.80;83.74;97286.47;5072971;28;20204;-74
2023/10/14 04:13:58;;;;;;;7.20;5.37;;;;;;;20.75;84.15;97278.47;5073196;28;20203;-74
2023/10/14 04:16:36;;;;;;;8.53;4.67;;;;;;;20.83;83.58;97294.75;5073209;28;20189;-74
2023/10/14 04:19:15;;;;;;;7.27;4.90;;;;;;;20.82;84.00;97285.06;5072871;28;20670;-74
2023/10/14 04:21:50;;;;;;;7.63;5.23;;;;;;;20.80;84.25;97291.84;5073184;28;20609;-74
2023/10/14 04:24:26;;;;;;;9.00;5.17;;;;;;;20.76;85.03;97307.84;5073803;28;20192;-74
2023/10/14 04:27:11;;;;;;;8.83;5.30;;;;;;;20.82;84.56;97313.97;5073071;28;20184;-74
2023/10/14 04:29:39;;;;;;;7.40;4.70;;;;;;;20.67;89.35;97327.78;5073209;28;20200;-74
2023/10/14 04:32:14;;;;;;;5.73;4.30;;;;;;;19.66;100.00;97344.16;5055531;28;20208;-74
2023/10/14 04:34:46;;;;;;;10.13;4.47;;;;;;;18.90;100.00;97358.66;5072833;28;20638;-73
2023/10/14 04:37:19;;;;;;;7.30;4.23;;;;;;;18.66;100.00;97371.34;5072974;28;20225;-73
2023/10/14 04:39:45;;;;;;;8.17;4.30;;;;;;;18.58;100.00;97390.81;5072810;28;20209;-73
2023/10/14 04:42:22;;;;;;;11.03;5.03;;;;;;;18.29;100.00;97373.84;5075351;28;20678;-73
2023/10/14 04:44:55;;;;;;;6.80;4.33;;;;;;;18.22;100.00;97369.88;5076809;28;20189;-73
2023/10/14 04:47:36;;;;;;;7.80;4.73;;;;;;;18.24;100.00;97365.03;5076682;28;20256;-73
2023/10/14 04:50:10;;;;;;;4.63;4.20;;;;;;;18.10;100.00;97367.56;5076424;28;20655;-74
2023/10/14 04:52:37;;;;;;;8.43;4.90;;;;;;;18.12;100.00;97376.16;5076735;28;20195;-73
2023/10/14 04:55:18;;;;;;;7.47;4.63;;;;;;;18.07;100.00;97364.63;5076586;28;20210;-74
2023/10/14 04:57:51;;;;;;;7.93;5.03;;;;;;;17.68;100.00;97362.00;5075474;28;20224;-74
2023/10/14 05:00:32;;;;;;;6.20;4.97;;;;;;;17.68;100.00;97372.75;5076287;28;20224;-74
2023/10/14 05:03:01;;;;;;;6.77;5.07;;;;;;;17.61;100.00;97377.66;5076212;28;20636;-74
2023/10/14 05:05:30;;;;;;;10.07;5.30;;;;;;;17.56;100.00;97377.66;5076148;28;20659;-74
2023/10/14 05:07:59;;;;;;;8.03;5.30;;;;;;;17.70;100.00;97378.69;5075603;28;20582;-74
2023/10/14 05:10:29;;;;;;;7.53;5.67;;;;;;;17.59;100.00;97379.81;5076233;28;20204;-74
2023/10/14 05:12:56;;;;;;;7.40;5.43;;;;;;;17.41;100.00;97377.78;5076111;28;20205;-74
2023/10/14 05:15:26;;;;;;;6.97;5.50;;;;;;;17.54;100.00;97379.03;5075892;28;20201;-74
2023/10/14 05:17:54;;;;;;;5.67;4.57;;;;;;;17.59;100.00;97393.25;5075970;28;20225;-74
2023/10/14 05:20:28;;;;;;;9.23;5.50;;;;;;;17.62;100.00;97392.72;5075781;28;20273;-73
2023/10/14 05:22:56;;;;;;;7.57;5.40;;;;;;;17.63;100.00;97391.63;5075754;28;20196;-74
2023/10/14 05:25:27;;;;;;;10.33;6.10;;;;;;;17.62;100.00;97392.72;5076383;28;20306;-74
2023/10/14 05:27:58;;;;;;;9.53;6.17;;;;;;;17.69;100.00;97397.78;5076375;28;20224;-74
2023/10/14 05:30:34;;;;;;;6.20;5.33;;;;;;;17.73;100.00;97410.34;5075736;28;20566;-74
2023/10/14 05:33:06;;;;;;;8.10;5.77;;;;;;;17.78;100.00;97401.47;5076090;28;20218;-74
2023/10/14 05:35:38;;;;;;;8.93;5.70;;;;;;;17.80;100.00;97413.53;5075757;28;20585;-74
2023/10/14 05:38:09;;;;;;;9.53;5.57;;;;;;;17.87;100.00;97418.59;5075505;28;20224;-74
2023/10/14 05:40:40;;;;;;;8.37;5.83;;;;;;;17.86;100.00;97425.84;5075780;28;20381;-74
2023/10/14 05:43:06;;;;;;;7.53;4.90;;;;;;;17.92;100.00;97430.09;5075607;28;20191;-74
2023/10/14 05:45:37;;;;;;;6.93;5.40;;;;;;;18.03;100.00;97420.06;5075736;28;20258;-74
2023/10/14 05:48:09;;;;;;;8.20;5.30;;;;;;;17.88;100.00;97423.72;5075337;28;20783;-74
2023/10/14 05:50:36;;;;;;;6.80;4.70;;;;;;;18.01;100.00;97438.41;5075653;28;20295;-73
2023/10/14 05:53:07;;;;;;;7.00;4.83;;;;;;;18.08;100.00;97439.69;5074301;28;20240;-73
2023/10/14 05:55:34;;;;;;;4.70;4.20;;;;;;;18.05;100.00;97445.59;5075425;28;20192;-73
2023/10/14 05:58:00;;;;;;;7.67;4.53;;;;;;;18.16;100.00;97444.47;5075426;28;20224;-73
2023/10/14 06:00:30;;;;;;;5.63;4.03;;;;;;;18.19;100.00;97446.56;5074862;28;20641;-73
2023/10/14 06:02:58;;;;;;;8.03;5.23;;;;;;;18.02;100.00;97445.38;5075243;28;20204;-73
2023/10/14 06:05:35;;;;;;;6.13;5.07;;;;;;;18.00;100.00;97448.34;5075347;28;20231;-73
2023/10/14 06:08:05;;;;;;;5.40;4.90;;;;;;;17.92;100.00;97454.31;5074723;28;20725;-73
2023/10/14 06:10:36;;;;;;;6.60;4.83;;;;;;;17.83;100.00;97456.00;5075073;28;20213;-73
2023/10/14 06:13:05;;;;;;;6.27;4.50;;;;;;;17.86;100.00;97452.75;5075671;28;20235;-73
2023/10/14 06:15:37;;;;;;;7.50;4.10;;;;;;;17.94;100.00;97457.53;5075049;28;20292;-73
2023/10/14 06:18:04;;;;;;;7.93;4.27;;;;;;;17.93;100.00;97464.00;5074710;28;20613;-73
2023/10/14 06:20:32;;;;;;;7.13;3.70;;;;;;;17.83;100.00;97461.38;5074933;28;20232;-73
2023/10/14 06:22:59;;;;;;;6.63;4.40;;;;;;;17.84;100.00;97478.31;5074835;28;20204;-73
2023/10/14 06:25:29;;;;;;;7.87;4.47;;;;;;;17.75;100.00;97478.13;5074865;28;20201;-73
2023/10/14 06:27:55;;;;;;;7.40;4.10;;;;;;;17.88;100.00;97490.13;5074696;28;20315;-73
2023/10/14 06:30:24;;;;;;;7.93;4.03;;;;;;;17.89;100.00;97484.47;5074701;28;20250;-73
2023/10/14 06:32:58;;;;;;;8.50;3.70;;;;;;;17.95;100.00;97507.56;5074298;28;20574;-74
2023/10/14 06:35:26;;;;;;;4.83;3.40;;;;;;;17.94;100.00;97503.25;5074168;28;20180;-74
2023/10/14 06:37:53;;;;;;;6.03;3.50;;;;;;;17.96;100.00;97506.47;5073738;28;20247;-74
2023/10/14 06:40:20;;;;;;;4.90;3.00;;;;;;;17.99;100.00;97513.16;5074588;28;20212;-73
2023/10/14 06:42:49;;;;;;;5.50;2.80;;;;;;;18.14;100.00;97507.72;5074639;28;20205;-73
2023/10/14 06:45:22;;;;;;;5.77;3.30;;;;;;;18.09;100.00;97516.59;5074561;28;20207;-74
2023/10/14 06:47:51;;;;;;;3.83;2.70;;;;;;;18.04;100.00;97513.94;5074113;28;20730;-74
2023/10/14 06:50:23;;;;;;;5.23;2.93;;;;;;;17.97;100.00;97516.13;5074060;28;20682;-74
2023/10/14 06:52:58;;;;;;;6.57;3.13;;;;;;;18.01;100.00;97505.66;5074409;28;20196;-74
2023/10/14 06:55:26;;;;;;;4.50;2.90;;;;;;;18.03;100.00;97514.22;5074988;28;20200;-74
2023/10/14 06:57:53;;;;;;;6.20;2.80;;;;;;;18.05;100.00;97525.53;5073979;28;20224;-73
2023/10/14 07:00:29;;;;;;;4.83;2.57;;;;;;;18.09;100.00;97521.97;5074018;28;20266;-73
2023/10/14 07:02:57;;;;;;;8.30;2.90;;;;;;;18.08;100.00;97523.06;5074045;28;20555;-73
2023/10/14 07:05:24;;;;;;;4.03;2.60;;;;;;;18.20;100.00;97531.63;5073682;28;20250;-74
2023/10/14 07:07:50;;;;;;;7.37;2.60;;;;;;;18.27;100.00;97531.28;5073790;28;20270;-74
2023/10/14 07:10:17;;;;;;;4.23;2.87;;;;;;;18.37;100.00;97529.34;5074119;28;20204;-74
2023/10/14 07:12:44;;;;;;;5.37;2.43;;;;;;;18.32;100.00;97537.41;5073860;28;20227;-74
2023/10/14 07:15:12;;;;;;;5.23;2.70;;;;;;;18.36;100.00;97533.13;5074023;28;20316;-74
2023/10/14 07:17:41;;;;;;;5.13;2.57;;;;;;;18.43;100.00;97543.56;5073895;28;20319;-74
2023/10/14 07:20:12;;;;;;;6.03;2.57;;;;;;;18.53;100.00;97543.47;5073974;28;20651;-74
2023/10/14 07:22:42;;;;;;;6.30;2.37;;;;;;;18.68;100.00;97543.38;5073882;28;20220;-74
2023/10/14 07:25:10;;;;;;;3.87;2.20;;;;;;;18.75;100.00;97544.66;5073106;28;20585;-74
2023/10/14 07:27:39;;;;;;;4.67;2.30;;;;;;;18.83;100.00;97557.47;5073677;28;20221;-74
2023/10/14 07:30:14;;;;;;;5.67;2.53;;;;;;;18.91;100.00;97539.94;5074210;28;20204;-74
2023/10/14 07:32:48;;;;;;;4.37;2.17;;;;;;;18.85;100.00;97541.03;5073799;28;20211;-74
2023/10/14 07:35:17;;;;;;;6.07;2.50;;;;;;;18.97;100.00;97542.28;5073644;28;20189;-74
2023/10/14 07:37:48;;;;;;;5.27;2.40;;;;;;;18.98;100.00;97540.38;5073253;28;20234;-74
2023/10/14 07:40:23;;;;;;;2.87;2.10;;;;;;;19.00;100.00;97538.22;5073439;28;20184;-74
2023/10/14 07:42:54;;;;;;;6.90;2.30;;;;;;;18.97;100.00;97545.00;5073427;28;20184;-74
2023/10/14 07:45:28;;;;;;;3.30;2.13;;;;;;;19.08;100.00;97541.09;5073503;28;20192;-74
2023/10/14 07:47:56;;;;;;;4.90;2.13;;;;;;;19.10;100.00;97549.69;5073437;28;20232;-74
2023/10/14 07:50:23;;;;;;;4.93;2.03;;;;;;;19.15;100.00;97538.06;5074008;28;20207;-73
2023/10/14 07:52:51;;;;;;;3.37;1.90;;;;;;;19.22;100.00;97542.06;5073485;28;20201;-73
2023/10/14 07:55:22;;;;;;;3.87;1.80;;;;;;;19.12;100.00;97542.13;5073355;28;20211;-74
2023/10/14 07:57:49;;;;;;;3.43;2.17;;;;;;;19.15;100.00;97543.44;5073103;28;20231;-74
2023/10/14 08:00:16;;;;;;;4.57;2.20;;;;;;;19.14;100.00;97545.31;5073365;28;20686;-74
2023/10/14 08:02:43;;;;;;;2.67;1.70;;;;;;;19.15;100.00;97538.88;5072922;28;20228;-74
2023/10/14 08:05:11;;;;;;;3.27;1.73;;;;;;;19.14;100.00;97545.31;5073598;28;20211;-74
2023/10/14 08:07:41;;;;;;;3.90;1.80;;;;;;;19.20;100.00;97548.78;5072822;28;20224;-74
2023/10/14 08:10:17;;;;;;;3.93;2.00;;;;;;;19.18;100.00;97556.38;5073458;28;20204;-74
2023/10/14 08:12:45;;;;;;;8.00;2.10;;;;;;;19.25;100.00;97560.34;5073229;28;20254;-74
2023/10/14 08:15:11;;;;;;;4.60;1.83;;;;;;;19.38;100.00;97567.75;5073285;28;20201;-74
2023/10/14 08:17:38;;;;;;;4.57;1.83;;;;;;;19.50;100.00;97576.22;5076362;28;20221;-74
2023/10/14 08:20:12;;;;;;;2.60;2.00;;;;;;;19.44;100.00;97572.00;5077434;28;20236;-74
2023/10/14 08:22:39;;;;;;;2.97;1.70;;;;;;;19.46;100.00;97569.03;5077220;28;20211;-74
2023/10/14 08:25:07;;;;;;;2.63;1.70;;;;;;;19.53;100.00;97575.66;5076922;28;20204;-74
2023/10/14 08:27:35;;;;;;;1.87;1.50;;;;;;;19.63;100.00;97578.25;5077194;28;20234;-74
2023/10/14 08:30:10;;;;;;;4.23;1.70;;;;;;;19.67;100.00;97576.56;5077273;28;20222;-74
2023/10/14 08:32:37;;;;;;;2.60;1.87;;;;;;;19.77;100.00;97572.16;5077335;28;20181;-74
2023/10/14 08:35:14;;;;;;;2.27;1.70;;;;;;;19.95;100.00;97582.16;5077028;28;20200;-74
2023/10/14 08:37:42;;;;;;;2.90;1.60;;;;;;;19.89;100.00;97573.31;5077431;28;20227;-74
2023/10/14 08:40:15;;;;;;;4.00;1.30;;;;;;;19.92;100.00;97566.56;5076928;28;20201;-74
2023/10/14 08:42:43;;;;;;;4.03;1.40;;;;;;;20.05;100.00;97574.75;5076670;28;20216;-74
2023/10/14 08:45:10;;;;;;;2.07;1.10;;;;;;;20.28;100.00;97576.59;5076695;28;20235;-74
2023/10/14 08:47:37;;;;;;;6.07;3.43;;;;;;;20.42;100.00;97569.38;5077122;28;20289;-74
2023/10/14 08:50:09;;;;;;;2.30;1.20;;;;;;;20.42;100.00;97577.47;5076585;28;20205;-74
2023/10/14 08:52:37;;;;;;;1.97;1.27;;;;;;;20.36;100.00;97577.84;5076351;28;20279;-74
2023/10/14 08:55:06;;;;;;;1.60;1.10;;;;;;;20.44;100.00;97580.66;5076355;28;20675;-74
2023/10/14 08:57:34;;;;;;;1.60;1.10;;;;;;;20.51;100.00;97577.59;5076722;28;20225;-74
2023/10/14 09:00:00;;;;;;;4.13;1.17;;;;;;;20.60;100.00;97584.75;5076559;28;20247;-74
2023/10/14 09:02:26;;;;;;;2.77;1.10;;;;;;;20.52;100.00;97590.81;5076657;28;20235;-74
2023/10/14 09:04:53;;;;;;;2.90;1.00;;;;;;;20.40;100.00;97592.38;5076471;28;20258;-74
2023/10/14 09:07:23;;;;;;;2.47;1.00;;;;;;;20.62;100.00;97630.38;5076389;28;20228;-74
2023/10/14 09:09:52;;;;;;;1.80;0.93;;;;;;;18.97;100.00;97628.50;5076528;28;20545;-74
2023/10/14 09:12:18;;;;;;;1.30;0.80;;;;;;;18.45;100.00;97632.91;5076357;28;20203;-74
2023/10/14 09:14:45;;;;;;;0.93;0.70;;;;;;;17.62;100.00;97645.38;5076169;28;20209;-73
2023/10/14 09:17:11;;;;;;;0.93;0.70;;;;;;;17.63;100.00;97651.53;5075985;28;20702;-73
2023/10/14 09:19:50;;;;;;;0.97;0.80;;;;;;;17.49;100.00;97653.19;5075965;28;20219;-73
2023/10/14 09:22:25;;;;;;;0.80;0.80;;;;;;;17.21;100.00;97669.88;5075930;28;20231;-73
2023/10/14 09:24:52;;;;;;;2.00;1.00;;;;;;;17.22;100.00;97669.63;5075727;28;20570;-73
2023/10/14 09:27:20;;;;;;;2.27;1.10;;;;;;;16.48;100.00;97667.69;5075956;28;20230;-73
2023/10/14 09:29:47;;;;;;;2.70;1.30;;;;;;;16.47;100.00;97647.31;5075804;28;20613;-74
2023/10/14 09:32:15;;;;;;;1.73;1.10;;;;;;;16.27;100.00;97642.66;5075874;28;20201;-74
2023/10/14 09:34:42;;;;;;;1.90;1.40;;;;;;;16.18;100.00;97656.84;5076017;28;20254;-74
2023/10/14 09:37:12;;;;;;;2.33;1.37;;;;;;;16.18;100.00;97646.94;5075665;28;20566;-74
2023/10/14 09:39:41;;;;;;;2.63;1.40;;;;;;;16.13;100.00;97659.50;5075668;28;20235;-73
2023/10/14 09:42:11;;;;;;;2.23;1.40;;;;;;;16.10;100.00;97657.38;5075694;28;20220;-72
2023/10/14 09:44:42;;;;;;;2.03;1.30;;;;;;;16.20;100.00;97668.13;5076005;28;20205;-72
2023/10/14 09:47:12;;;;;;;2.00;1.83;;;;;;;16.40;100.00;97658.28;5075485;28;20276;-72
2023/10/14 09:49:40;;;;;;;1.90;1.70;;;;;;;16.50;100.00;97660.97;5075622;28;20209;-72
2023/10/14 09:52:07;;;;;;;1.93;1.20;;;;;;;16.41;100.00;97662.56;5075160;28;20205;-72
2023/10/14 09:54:36;;;;;;;1.80;1.70;;;;;;;16.59;100.00;97658.56;5075169;28;20219;-72
2023/10/14 09:57:02;;;;;;;2.33;1.50;;;;;;;16.63;100.00;97667.69;5075332;28;20200;-72
2023/10/14 09:59:33;;;;;;;1.27;1.20;;;;;;;16.69;100.00;97667.44;5075680;28;20208;-73
2023/10/14 10:01:59;;;;;;;1.60;1.40;;;;;;;16.83;100.00;97657.78;5075272;28;20307;-73
2023/10/14 10:04:33;;;;;;;0.90;0.90;;;;;;;16.66;100.00;97667.19;5075054;28;20520;-73
2023/10/14 10:07:24;;;;;;;1.70;1.00;;;;;;;16.93;100.00;97648.94;5075425;28;20200;-73
2023/10/14 10:10:11;;;;;;;1.90;1.00;;;;;;;17.03;100.00;97659.69;5074886;28;20577;-73
2023/10/14 10:12:41;;;;;;;1.00;1.00;;;;;;;16.83;100.00;97663.16;5075469;28;20208;-72
2023/10/14 10:15:08;;;;;;;0.77;0.77;;;;;;;16.67;100.00;97664.25;5075215;28;20211;-72
2023/10/14 10:17:38;;;;;;;2.23;1.00;;;;;;;16.78;100.00;97667.75;5075005;28;20224;-73
2023/10/14 10:20:10;;;;;;;1.47;1.37;;;;;;;16.82;100.00;97669.63;5075111;28;20318;-73
2023/10/14 10:22:41;;;;;;;0.83;0.83;;;;;;;16.84;100.00;97659.44;5074996;28;20612;-73
2023/10/14 10:25:11;;;;;;;2.30;2.10;;;;;;;16.85;100.00;97666.41;5075275;28;20257;-73
2023/10/14 10:27:37;;;;;;;3.80;3.07;;;;;;;16.88;100.00;97671.22;5074730;28;20225;-73
2023/10/14 10:30:07;;;;;;;1.23;1.13;;;;;;;16.85;100.00;97677.16;5074517;28;20215;-73
2023/10/14 10:32:34;;;;;;;1.20;0.90;;;;;;;16.79;100.00;97678.19;5074604;28;20698;-73
2023/10/14 10:35:06;;;;;;;1.03;0.90;;;;;;;16.71;100.00;97669.88;5074747;28;20262;-73
2023/10/14 10:37:52;;;;;;;0.70;0.70;;;;;;;16.88;100.00;97671.22;5074419;28;20669;-73
2023/10/14 10:40:27;;;;;;;0.80;0.80;;;;;;;16.78;100.00;97675.78;5073784;28;20597;-73
2023/10/14 10:42:59;;;;;;;1.37;0.80;;;;;;;16.74;100.00;97667.44;5074368;28;20224;-73
2023/10/14 10:45:33;;;;;;;1.30;1.10;;;;;;;16.97;100.00;97672.28;5074158;28;20690;-73
2023/10/14 10:48:05;;;;;;;0.70;0.70;;;;;;;16.84;100.00;97674.72;5074781;28;20318;-73
2023/10/14 10:50:36;;;;;;;1.73;0.73;;;;;;;16.84;100.00;97672.84;5074467;28;20209;-73
2023/10/14 10:53:07;;;;;;;1.90;1.20;;;;;;;16.88;100.00;97676.59;5074453;28;20213;-73
2023/10/14 10:55:39;;;;;;;0.80;0.80;;;;;;;16.71;100.00;97670.69;5073269;28;20515;-73
2023/10/14 10:58:08;;;;;;;0.70;0.70;;;;;;;16.72;100.00;97668.78;5074077;28;20228;-73
2023/10/14 11:00:38;;;;;;;3.17;1.10;;;;;;;16.80;100.00;97670.94;5073747;28;20213;-73
2023/10/14 11:03:05;;;;;;;0.80;0.80;;;;;;;16.96;100.00;97667.22;5073715;28;20239;-73
2023/10/14 11:05:33;;;;;;;1.97;1.00;;;;;;;16.92;100.00;97666.91;5073852;28;20571;-73
2023/10/14 11:08:03;;;;;;;1.33;0.80;;;;;;;16.64;100.00;97672.81;5074078;28;20232;-73
2023/10/14 11:10:31;;;;;;;1.00;0.90;;;;;;;16.73;100.00;97668.53;5074430;28;20254;-73
2023/10/14 11:12:59;;;;;;;1.10;0.93;;;;;;;16.49;100.00;97683.53;5074114;28;20208;-73
2023/10/14 11:15:31;;;;;;;2.80;0.83;;;;;;;16.25;100.00;97677.00;5073962;28;20258;-73
2023/10/14 11:17:58;;;;;;;1.27;0.80;;;;;;;16.16;100.00;97681.25;5073532;28;20224;-73
2023/10/14 11:20:28;;;;;;;0.80;0.80;;;;;;;16.06;100.00;97686.56;5073499;28;20667;-73
2023/10/14 11:22:55;;;;;;;0.90;0.90;;;;;;;16.04;100.00;97669.94;5072654;28;20232;-73
2023/10/14 11:25:22;;;;;;;1.63;1.10;;;;;;;15.93;100.00;97676.31;5073827;28;20235;-73
2023/10/14 11:27:49;;;;;;;0.80;0.80;;;;;;;15.97;100.00;97672.06;5073809;28;20246;-73
2023/10/14 11:30:19;;;;;;;1.47;0.70;;;;;;;15.96;100.00;97659.72;5073814;28;20201;-74
2023/10/14 11:32:50;;;;;;;3.20;1.20;;;;;;;15.74;100.00;97647.56;5073665;28;20211;-73
2023/10/14 11:35:18;;;;;;;1.47;1.00;;;;;;;15.74;100.00;97648.38;5073679;28;20188;-73
2023/10/14 11:37:52;;;;;;;1.53;1.00;;;;;;;15.87;100.00;97663.97;5073151;28;20228;-72
2023/10/14 11:40:19;;;;;;;2.37;1.03;;;;;;;15.84;100.00;97672.53;5073608;28;20204;-72
2023/10/14 11:42:46;;;;;;;1.93;0.80;;;;;;;15.88;100.00;97673.63;5073172;28;20698;-72
2023/10/14 11:45:17;;;;;;;0.97;0.87;;;;;;;15.95;100.00;97682.25;5073116;28;20212;-72
2023/10/14 11:47:44;;;;;;;1.60;0.90;;;;;;;15.75;100.00;97666.06;5073423;28;20282;-72